createdAt,value
2017-09-02T00:00:36.265Z,8.77
2017-09-02T00:03:03.835Z,9.17
2017-09-02T00:05:31.286Z,8.40
2017-09-02T00:07:58.750Z,9.30
2017-09-02T00:10:26.200Z,10.07
2017-09-02T00:12:53.662Z,8.87
2017-09-02T00:15:21.122Z,10.33
2017-09-02T00:17:48.576Z,10.60
2017-09-02T00:20:16.038Z,10.93
2017-09-02T00:22:44.282Z,10.80
2017-09-02T00:25:11.739Z,9.30
2017-09-02T00:27:39.214Z,9.73
2017-09-02T00:30:06.661Z,11.23
2017-09-02T00:32:34.213Z,12.27
2017-09-02T00:35:01.686Z,12.47
2017-09-02T00:37:29.142Z,14.20
2017-09-02T00:39:56.689Z,13.17
2017-09-02T00:42:24.145Z,12.80
2017-09-02T00:44:51.604Z,13.80
2017-09-02T00:47:19.160Z,12.60
2017-09-02T00:49:46.621Z,14.20
2017-09-02T00:52:14.082Z,12.20
2017-09-02T00:54:41.550Z,11.90
2017-09-02T00:57:09.011Z,11.50
2017-09-02T00:59:36.495Z,11.10
2017-09-02T01:02:04.005Z,11.87
2017-09-02T01:04:31.475Z,12.07
2017-09-02T01:06:59.008Z,11.20
2017-09-02T01:09:26.487Z,11.50
2017-09-02T01:11:53.940Z,11.67
2017-09-02T01:14:21.396Z,11.50
2017-09-02T01:16:48.941Z,10.40
2017-09-02T01:19:16.398Z,12.90
2017-09-02T01:21:43.862Z,13.40
2017-09-02T01:24:11.416Z,13.80
2017-09-02T01:26:38.922Z,15.70
2017-09-02T01:29:06.379Z,16.20
2017-09-02T01:31:33.845Z,15.63
2017-09-02T01:34:01.315Z,14.80
2017-09-02T01:36:28.778Z,15.17
2017-09-02T01:38:56.239Z,14.43
2017-09-02T01:41:23.698Z,12.53
2017-09-02T01:43:51.162Z,12.57
2017-09-02T01:46:18.621Z,13.30
2017-09-02T01:48:46.086Z,11.77
2017-09-02T01:51:13.637Z,12.60
2017-09-02T01:53:41.097Z,12.57
2017-09-02T01:56:08.658Z,13.57
2017-09-02T01:58:36.113Z,13.03
2017-09-02T02:01:03.665Z,12.47
2017-09-02T02:03:31.129Z,13.73
2017-09-02T02:05:58.681Z,15.37
2017-09-02T02:08:26.169Z,16.17
2017-09-02T02:10:54.390Z,15.60
2017-09-02T02:13:21.846Z,15.17
2017-09-02T02:15:49.336Z,14.43
2017-09-02T02:18:16.781Z,14.33
2017-09-02T02:20:44.249Z,14.03
2017-09-02T02:23:11.701Z,13.57
2017-09-02T02:25:39.170Z,14.80
2017-09-02T02:28:06.714Z,15.60
2017-09-02T02:30:34.173Z,13.33
2017-09-02T02:33:01.634Z,12.43
2017-09-02T02:35:29.170Z,12.17
2017-09-02T02:37:56.650Z,12.10
2017-09-02T02:40:24.195Z,12.40
2017-09-02T02:42:51.662Z,12.50
2017-09-02T02:45:19.213Z,14.60
2017-09-02T02:47:46.669Z,14.20
2017-09-02T02:50:14.134Z,14.43
2017-09-02T02:52:41.590Z,12.97
2017-09-02T02:55:09.149Z,14.77
2017-09-02T02:57:36.605Z,14.07
2017-09-02T03:00:04.153Z,13.60
2017-09-02T03:02:31.622Z,14.40
2017-09-02T03:04:59.169Z,15.23
2017-09-02T03:07:26.633Z,15.10
2017-09-02T03:09:54.190Z,14.20
2017-09-02T03:12:21.662Z,13.30
2017-09-02T03:14:49.202Z,12.87
2017-09-02T03:17:16.758Z,10.87
2017-09-02T03:19:44.313Z,11.87
2017-09-02T03:22:11.794Z,12.50
2017-09-02T03:24:39.337Z,11.97
2017-09-02T03:27:06.892Z,12.93
2017-09-02T03:29:34.349Z,12.07
2017-09-02T03:32:01.838Z,12.67
2017-09-02T03:34:29.370Z,13.60
2017-09-02T03:36:56.922Z,16.70
2017-09-02T03:39:24.391Z,16.60
2017-09-02T03:41:51.846Z,17.37
2017-09-02T03:44:19.400Z,17.30
2017-09-02T03:46:46.845Z,15.87
2017-09-02T03:49:15.285Z,15.87
2017-09-02T03:51:45.455Z,15.30
2017-09-02T03:54:12.922Z,16.07
2017-09-02T03:56:40.465Z,18.30
2017-09-02T03:59:08.017Z,21.77
2017-09-02T04:01:35.470Z,16.97
2017-09-02T04:04:02.934Z,16.87
2017-09-02T04:06:30.395Z,14.93
2017-09-02T04:08:57.853Z,15.07
2017-09-02T04:11:25.321Z,13.60
2017-09-02T04:13:52.794Z,14.40
2017-09-02T04:16:20.250Z,15.60
2017-09-02T04:18:48.476Z,13.07
2017-09-02T04:21:15.941Z,11.10
2017-09-02T04:23:43.395Z,11.80
2017-09-02T04:26:10.953Z,11.80
2017-09-02T04:28:38.429Z,12.80
2017-09-02T04:31:05.889Z,13.10
2017-09-02T04:33:33.346Z,13.57
2017-09-02T04:36:00.890Z,13.77
2017-09-02T04:38:29.314Z,14.67
2017-09-02T04:40:56.858Z,16.33
2017-09-02T04:43:24.381Z,14.90
2017-09-02T04:45:51.854Z,16.13
2017-09-02T04:48:19.405Z,15.40
2017-09-02T04:50:46.962Z,16.00
2017-09-02T04:53:15.451Z,17.43
2017-09-02T04:55:42.913Z,16.63
2017-09-02T04:58:11.373Z,16.80
2017-09-02T05:00:38.938Z,17.20
2017-09-02T05:03:06.530Z,17.10
2017-09-02T05:05:33.986Z,18.90
2017-09-02T05:08:01.446Z,14.87
2017-09-02T05:10:28.897Z,12.37
2017-09-02T05:13:00.175Z,12.60
2017-09-02T05:15:27.737Z,12.70
2017-09-02T05:17:55.197Z,12.83
2017-09-02T05:20:24.521Z,15.17
2017-09-02T05:22:52.086Z,17.07
2017-09-02T05:25:21.514Z,16.77
2017-09-02T05:27:49.059Z,15.37
2017-09-02T05:30:16.519Z,13.33
2017-09-02T05:32:43.987Z,14.00
2017-09-02T05:35:12.204Z,13.77
2017-09-02T05:37:39.674Z,11.90
2017-09-02T05:40:07.143Z,11.13
2017-09-02T05:42:34.611Z,11.43
2017-09-02T05:45:02.066Z,14.03
2017-09-02T05:47:29.789Z,17.37
2017-09-02T05:49:57.301Z,16.23
2017-09-02T05:52:24.884Z,18.60
2017-09-02T05:54:52.403Z,21.90
2017-09-02T05:57:19.861Z,21.50
2017-09-02T05:59:47.334Z,26.23
2017-09-02T06:02:15.550Z,21.90
2017-09-02T06:04:43.062Z,19.07
2017-09-02T06:07:11.286Z,20.07
2017-09-02T06:09:39.756Z,18.33
2017-09-02T06:12:07.205Z,17.63
2017-09-02T06:14:34.672Z,20.40
2017-09-02T06:17:02.133Z,19.50
2017-09-02T06:19:30.598Z,21.83
2017-09-02T06:21:58.065Z,23.73
2017-09-02T06:24:25.569Z,22.97
2017-09-02T06:26:53.029Z,25.50
2017-09-02T06:29:20.486Z,20.63
2017-09-02T06:31:47.945Z,24.07
2017-09-02T06:34:15.441Z,25.50
2017-09-02T06:36:42.914Z,28.10
2017-09-02T06:39:11.953Z,27.40
2017-09-02T06:41:42.249Z,27.00
2017-09-02T06:44:11.129Z,25.33
2017-09-02T06:46:40.937Z,28.70
2017-09-02T06:49:08.385Z,26.80
2017-09-02T06:51:35.846Z,26.73
2017-09-02T06:54:03.306Z,26.00
2017-09-02T06:56:30.788Z,22.60
2017-09-02T06:58:58.436Z,22.10
2017-09-02T07:01:26.013Z,22.87
2017-09-02T07:03:53.878Z,21.30
2017-09-02T07:06:21.363Z,18.80
2017-09-02T07:08:50.018Z,19.90
2017-09-02T07:11:17.598Z,21.00
2017-09-02T07:13:45.273Z,17.97
2017-09-02T07:16:12.736Z,18.30
2017-09-02T07:18:40.518Z,19.87
2017-09-02T07:21:08.980Z,19.10
2017-09-02T07:23:36.433Z,21.17
2017-09-02T07:26:07.321Z,17.03
2017-09-02T07:28:34.811Z,18.37
2017-09-02T07:31:02.671Z,16.67
2017-09-02T07:33:30.149Z,17.60
2017-09-02T07:35:57.928Z,17.90
2017-09-02T07:38:25.387Z,18.90
2017-09-02T07:40:52.850Z,20.40
2017-09-02T07:43:20.338Z,21.37
2017-09-02T07:45:47.795Z,20.90
2017-09-02T07:48:15.341Z,20.70
2017-09-02T07:50:42.818Z,18.87
2017-09-02T07:53:10.270Z,20.30
2017-09-02T07:55:37.797Z,16.50
2017-09-02T07:58:05.258Z,18.90
2017-09-02T08:00:32.742Z,18.77
2017-09-02T08:03:00.206Z,18.77
2017-09-02T08:05:27.667Z,19.97
2017-09-02T08:07:55.131Z,18.37
2017-09-02T08:10:22.589Z,18.43
2017-09-02T08:12:50.057Z,19.40
2017-09-02T08:15:17.510Z,21.03
2017-09-02T08:17:44.973Z,17.53
2017-09-02T08:20:15.627Z,18.60
2017-09-02T08:22:43.709Z,17.87
2017-09-02T08:25:11.167Z,19.43
2017-09-02T08:27:38.754Z,18.80
2017-09-02T08:30:06.218Z,19.20
2017-09-02T08:32:33.695Z,19.83
2017-09-02T08:35:01.163Z,19.67
2017-09-02T08:37:28.620Z,19.10
2017-09-02T08:39:57.223Z,20.80
2017-09-02T08:42:24.667Z,21.83
2017-09-02T08:44:52.138Z,20.50
2017-09-02T08:47:20.937Z,20.60
2017-09-02T08:49:50.633Z,19.93
2017-09-02T08:52:18.079Z,20.53
2017-09-02T08:54:45.647Z,22.10
2017-09-02T08:57:13.102Z,22.83
2017-09-02T08:59:40.639Z,23.10
2017-09-02T09:02:08.099Z,23.20
2017-09-02T09:04:36.424Z,23.60
2017-09-02T09:07:03.873Z,24.17
2017-09-02T09:09:31.435Z,22.20
2017-09-02T09:11:58.888Z,19.60
2017-09-02T09:14:26.366Z,20.53
2017-09-02T09:16:53.818Z,19.43
2017-09-02T09:19:21.306Z,20.50
2017-09-02T09:21:48.819Z,19.13
2017-09-02T09:24:17.414Z,16.23
2017-09-02T09:26:44.965Z,16.93
2017-09-02T09:29:14.166Z,14.63
2017-09-02T09:31:43.723Z,15.20
2017-09-02T09:34:13.033Z,17.50
2017-09-02T09:36:40.588Z,18.23
2017-09-02T09:39:08.263Z,16.53
2017-09-02T09:41:37.860Z,13.37
2017-09-02T09:44:06.638Z,14.10
2017-09-02T09:46:34.333Z,13.23
2017-09-02T09:49:02.656Z,14.70
2017-09-02T09:51:30.989Z,14.70
2017-09-02T09:53:58.519Z,13.40
2017-09-02T09:56:25.986Z,15.50
2017-09-02T09:58:53.457Z,13.60
2017-09-02T10:01:20.914Z,11.63
2017-09-02T10:03:51.397Z,12.20
2017-09-02T10:08:51.914Z,12.87
2017-09-02T10:11:19.381Z,13.23
2017-09-02T10:13:47.906Z,15.37
2017-09-02T10:16:15.365Z,13.27
2017-09-02T10:18:42.835Z,12.40
2017-09-02T10:21:13.343Z,10.53
2017-09-02T10:23:41.882Z,11.50
2017-09-02T10:26:10.107Z,11.73
2017-09-02T10:28:37.675Z,10.97
2017-09-02T10:31:06.419Z,10.43
2017-09-02T10:33:33.884Z,11.13
2017-09-02T10:36:01.390Z,9.80
2017-09-02T10:38:28.861Z,10.60
2017-09-02T10:40:56.318Z,9.80
2017-09-02T10:43:23.776Z,10.70
2017-09-02T10:45:51.230Z,8.90
2017-09-02T10:48:18.767Z,9.60
2017-09-02T10:50:46.321Z,7.20
2017-09-02T10:53:13.882Z,6.90
2017-09-02T10:55:41.447Z,8.70
2017-09-02T10:58:08.899Z,8.00
2017-09-02T11:00:36.371Z,9.67
2017-09-02T11:03:03.818Z,8.00
2017-09-02T11:05:31.918Z,9.10
2017-09-02T11:07:59.374Z,8.53
2017-09-02T11:10:27.173Z,8.27
2017-09-02T11:12:55.877Z,9.23
2017-09-02T11:15:26.042Z,7.90
2017-09-02T11:17:53.502Z,8.10
2017-09-02T11:20:22.282Z,8.23
2017-09-02T11:22:50.648Z,9.70
2017-09-02T11:25:18.197Z,8.20
2017-09-02T11:27:45.654Z,7.47
2017-09-02T11:30:13.114Z,6.70
2017-09-02T11:32:40.660Z,6.63
2017-09-02T11:35:08.113Z,7.07
2017-09-02T11:37:35.684Z,6.30
2017-09-02T11:40:03.244Z,7.47
2017-09-02T11:42:35.593Z,6.70
2017-09-02T11:45:04.070Z,6.77
2017-09-02T11:47:31.950Z,6.10
2017-09-02T11:50:00.434Z,5.20
2017-09-02T11:52:29.082Z,6.00
2017-09-02T11:54:56.949Z,5.13
2017-09-02T11:57:24.718Z,6.00
2017-09-02T11:59:53.001Z,5.93
2017-09-02T12:02:20.483Z,5.97
2017-09-02T12:04:50.873Z,6.33
2017-09-02T12:07:18.353Z,5.80
2017-09-02T12:09:47.150Z,5.30
2017-09-02T12:12:15.007Z,5.77
2017-09-02T12:14:42.573Z,7.33
2017-09-02T12:17:10.024Z,8.27
2017-09-02T12:19:39.131Z,6.40
2017-09-02T12:22:06.610Z,5.27
2017-09-02T12:24:34.135Z,4.90
2017-09-02T12:27:01.586Z,5.13
2017-09-02T12:29:31.880Z,4.13
2017-09-02T12:31:59.329Z,4.03
2017-09-02T12:34:26.849Z,4.30
2017-09-02T12:36:54.311Z,3.67
2017-09-02T12:39:21.760Z,4.50
2017-09-02T12:41:49.228Z,3.70
2017-09-02T12:44:16.772Z,4.10
2017-09-02T12:46:44.246Z,4.37
2017-09-02T12:49:11.802Z,4.23
2017-09-02T12:51:39.304Z,4.63
2017-09-02T12:54:06.743Z,4.00
2017-09-02T12:56:34.215Z,4.10
2017-09-02T12:59:01.707Z,3.70
2017-09-02T13:01:30.087Z,4.47
2017-09-02T13:03:57.641Z,4.27
2017-09-02T13:06:25.107Z,3.60
2017-09-02T13:08:53.526Z,3.87
2017-09-02T13:11:21.074Z,4.43
2017-09-02T13:13:48.557Z,4.93
2017-09-02T13:16:16.008Z,4.53
2017-09-02T13:18:43.458Z,5.33
2017-09-02T13:21:10.934Z,4.20
2017-09-02T13:23:38.441Z,4.80
2017-09-02T13:26:07.410Z,4.40
2017-09-02T13:28:52.469Z,4.53
2017-09-02T13:31:19.947Z,4.30
2017-09-02T13:33:47.470Z,5.17
2017-09-02T13:36:14.937Z,4.47
2017-09-02T13:38:45.171Z,5.40
2017-09-02T13:41:12.646Z,3.87
2017-09-02T13:43:40.177Z,4.23
2017-09-02T13:46:08.649Z,4.30
2017-09-02T13:48:37.949Z,4.20
2017-09-02T13:51:05.486Z,4.53
2017-09-02T13:53:32.937Z,8.77
2017-09-02T13:56:00.386Z,6.20
2017-09-02T13:58:27.897Z,4.03
2017-09-02T14:00:55.454Z,5.00
2017-09-02T14:03:23.232Z,5.00
2017-09-02T14:05:50.779Z,5.00
2017-09-02T14:08:18.325Z,4.33
2017-09-02T14:10:45.779Z,4.53
2017-09-02T14:13:13.234Z,5.20
2017-09-02T14:15:40.996Z,4.93
2017-09-02T14:18:08.441Z,4.63
2017-09-02T14:20:35.898Z,4.00
2017-09-02T14:23:03.345Z,5.03
2017-09-02T14:25:30.822Z,4.40
2017-09-02T14:28:00.768Z,6.13
2017-09-02T14:30:29.027Z,5.27
2017-09-02T14:32:56.473Z,5.13
2017-09-02T14:35:27.080Z,4.50
2017-09-02T14:37:54.566Z,4.77
2017-09-02T14:40:22.021Z,4.47
2017-09-02T14:42:49.478Z,5.10
2017-09-02T14:45:16.942Z,3.30
2017-09-02T14:47:44.486Z,3.67
2017-09-02T14:50:11.942Z,3.47
2017-09-02T14:52:39.390Z,3.30
2017-09-02T14:55:06.859Z,3.70
2017-09-02T14:57:34.386Z,3.87
2017-09-02T15:00:01.870Z,3.60
2017-09-02T15:02:29.342Z,3.83
2017-09-02T15:04:56.890Z,5.13
2017-09-02T15:07:24.346Z,2.73
2017-09-02T15:09:51.805Z,2.30
2017-09-02T15:12:19.274Z,2.43
2017-09-02T15:14:47.476Z,3.00
2017-09-02T15:17:14.991Z,2.30
2017-09-02T15:19:42.441Z,2.27
2017-09-02T15:22:10.010Z,2.83
2017-09-02T15:24:37.466Z,2.93
2017-09-02T15:27:05.019Z,3.37
2017-09-02T15:29:32.573Z,3.30
2017-09-02T15:32:00.050Z,3.07
2017-09-02T15:34:27.589Z,2.83
2017-09-02T15:36:55.041Z,2.63
2017-09-02T15:39:22.515Z,2.50
2017-09-02T15:41:49.965Z,2.70
2017-09-02T15:44:17.428Z,2.83
2017-09-02T15:46:44.898Z,2.50
2017-09-02T15:49:12.358Z,2.10
2017-09-02T15:51:40.578Z,2.50
2017-09-02T15:54:08.062Z,2.10
2017-09-02T15:56:35.522Z,2.50
2017-09-02T15:59:02.982Z,2.37
2017-09-02T16:01:30.437Z,2.53
2017-09-02T16:03:57.897Z,2.37
2017-09-02T16:06:25.352Z,3.57
2017-09-02T16:08:52.818Z,2.60
2017-09-02T16:11:20.366Z,2.10
2017-09-02T16:13:47.918Z,2.50
2017-09-02T16:16:15.365Z,2.00
2017-09-02T16:18:42.819Z,3.07
2017-09-02T16:21:10.382Z,2.70
2017-09-02T16:23:37.839Z,2.83
2017-09-02T16:26:05.293Z,2.80
2017-09-02T16:28:32.752Z,2.63
2017-09-02T16:31:00.213Z,2.20
2017-09-02T16:33:27.670Z,3.33
2017-09-02T16:35:55.234Z,3.27
2017-09-02T16:38:22.790Z,3.17
2017-09-02T16:40:50.337Z,2.70
2017-09-02T16:43:17.904Z,3.00
2017-09-02T16:45:45.458Z,2.83
2017-09-02T16:48:12.905Z,2.97
2017-09-02T16:50:40.367Z,2.10
2017-09-02T16:53:07.814Z,2.40
2017-09-02T16:55:35.272Z,2.23
2017-09-02T16:58:02.715Z,2.67
2017-09-02T17:00:30.166Z,2.90
2017-09-02T17:02:57.629Z,2.80
2017-09-02T17:05:25.075Z,3.40
2017-09-02T17:07:52.522Z,3.90
2017-09-02T17:10:19.982Z,4.17
2017-09-02T17:12:47.433Z,3.50
2017-09-02T17:15:14.889Z,4.70
2017-09-02T17:17:42.333Z,4.93
2017-09-02T17:20:09.790Z,4.60
2017-09-02T17:22:37.242Z,5.17
2017-09-02T17:25:05.462Z,4.83
2017-09-02T17:27:32.913Z,5.17
2017-09-02T17:30:00.378Z,5.57
2017-09-02T17:32:27.822Z,5.60
2017-09-02T17:34:55.278Z,5.70
2017-09-02T17:37:22.759Z,5.53
2017-09-02T17:39:50.214Z,5.80
2017-09-02T17:42:17.669Z,4.60
2017-09-02T17:44:45.113Z,5.23
2017-09-02T17:47:12.569Z,4.77
2017-09-02T17:49:40.026Z,4.13
2017-09-02T17:52:07.496Z,4.40
2017-09-02T17:54:34.945Z,4.50
2017-09-02T17:57:02.401Z,4.20
2017-09-02T17:59:29.859Z,5.20
2017-09-02T18:01:57.321Z,5.53
2017-09-02T18:04:24.776Z,4.90
2017-09-02T18:06:52.235Z,5.90
2017-09-02T18:09:19.681Z,5.67
2017-09-02T18:11:47.153Z,5.43
2017-09-02T18:14:14.605Z,5.10
2017-09-02T18:16:42.054Z,5.87
2017-09-02T18:19:09.626Z,5.83
2017-09-02T18:21:37.078Z,6.20
2017-09-02T18:24:04.535Z,5.37
2017-09-02T18:26:31.988Z,5.37
2017-09-02T18:28:59.446Z,5.73
2017-09-02T18:31:27.007Z,5.17
2017-09-02T18:33:54.469Z,4.90
2017-09-02T18:36:21.914Z,4.60
2017-09-02T18:38:49.374Z,5.37
2017-09-02T18:41:17.748Z,5.13
2017-09-02T18:43:45.198Z,4.90
2017-09-02T18:46:12.649Z,4.67
2017-09-02T18:48:40.131Z,5.70
2017-09-02T18:51:10.361Z,5.40
2017-09-02T18:53:37.816Z,5.13
2017-09-02T18:56:05.282Z,5.07
2017-09-02T18:58:32.717Z,6.50
2017-09-02T19:01:00.185Z,7.80
2017-09-02T19:03:27.635Z,7.90
2017-09-02T19:05:55.104Z,10.47
2017-09-02T19:08:22.566Z,113.50
2017-09-02T19:10:50.055Z,28.30
2017-09-02T19:13:17.478Z,8.60
2017-09-02T19:15:46.719Z,7.77
2017-09-02T19:18:15.704Z,6.33
2017-09-02T19:20:43.237Z,6.20
2017-09-02T19:23:10.690Z,6.20
2017-09-02T19:25:38.217Z,6.73
2017-09-02T19:28:05.677Z,6.43
2017-09-02T19:30:33.809Z,5.70
2017-09-02T19:33:01.385Z,7.07
2017-09-02T19:35:28.849Z,6.10
2017-09-02T19:37:56.306Z,6.50
2017-09-02T19:40:27.260Z,7.37
2017-09-02T19:42:54.737Z,6.27
2017-09-02T19:45:22.184Z,6.70
2017-09-02T19:47:49.735Z,6.20
2017-09-02T19:50:17.303Z,6.13
2017-09-02T19:52:44.762Z,6.30
2017-09-02T19:55:15.064Z,7.23
2017-09-02T19:57:42.637Z,8.10
2017-09-02T20:00:10.147Z,7.83
2017-09-02T20:02:37.645Z,8.27
2017-09-02T20:05:07.545Z,8.37
2017-09-02T20:07:35.958Z,8.50
2017-09-02T20:10:03.461Z,7.83
2017-09-02T20:12:30.955Z,6.60
2017-09-02T20:15:03.449Z,7.33
2017-09-02T20:17:30.985Z,8.07
2017-09-02T20:20:01.418Z,9.53
2017-09-02T20:22:28.866Z,8.47
2017-09-02T20:24:56.335Z,9.57
2017-09-02T20:27:23.803Z,7.80
2017-09-02T20:29:51.296Z,8.33
2017-09-02T20:32:21.313Z,8.20
2017-09-02T20:34:48.806Z,8.00
2017-09-02T20:37:16.266Z,7.07
2017-09-02T20:39:43.734Z,7.67
2017-09-02T20:42:11.173Z,8.60
2017-09-02T20:44:38.650Z,7.90
2017-09-02T20:47:06.098Z,9.20
2017-09-02T20:49:33.642Z,7.97
2017-09-02T20:52:01.098Z,8.97
2017-09-02T20:54:29.347Z,8.10
2017-09-02T20:56:56.826Z,7.23
2017-09-02T20:59:25.781Z,7.80
2017-09-02T21:01:54.876Z,8.97
2017-09-02T21:04:23.318Z,8.50
2017-09-02T21:06:50.773Z,9.13
2017-09-02T21:09:18.238Z,10.00
2017-09-02T21:11:45.785Z,9.30
2017-09-02T21:14:13.330Z,8.93
2017-09-02T21:16:40.792Z,9.70
2017-09-02T21:19:08.370Z,8.33
2017-09-02T21:21:37.709Z,10.13
2017-09-02T21:24:05.958Z,10.37
2017-09-02T21:26:34.197Z,10.80
2017-09-02T21:29:01.679Z,10.93
2017-09-02T21:31:30.864Z,10.77
2017-09-02T21:33:59.067Z,11.93
2017-09-02T21:36:26.521Z,13.90
2017-09-02T21:38:54.034Z,14.07
2017-09-02T21:41:21.502Z,13.57
2017-09-02T21:43:49.042Z,13.50
2017-09-02T21:46:16.497Z,14.70
2017-09-02T21:48:43.972Z,14.47
2017-09-02T21:51:11.428Z,12.70
2017-09-02T21:53:38.890Z,15.00
2017-09-02T21:56:06.425Z,15.50
2017-09-02T21:58:33.898Z,15.10
2017-09-02T22:02:37.014Z,16.47
2017-09-02T22:05:04.545Z,15.97
2017-09-02T22:07:32.007Z,17.97
2017-09-02T22:09:59.483Z,17.77
2017-09-02T22:12:26.938Z,17.60
2017-09-02T22:14:56.178Z,17.10
2017-09-02T22:17:23.633Z,18.97
2017-09-02T22:19:51.117Z,15.83
2017-09-02T22:22:18.578Z,18.30
2017-09-02T22:24:46.038Z,17.50
2017-09-02T22:27:13.503Z,17.87
2017-09-02T22:29:40.963Z,19.50
2017-09-02T22:32:08.429Z,18.10
2017-09-02T22:34:36.679Z,16.23
2017-09-02T22:37:05.107Z,18.17
2017-09-02T22:39:32.580Z,18.27
2017-09-02T22:42:00.071Z,19.57
2017-09-02T22:44:27.558Z,19.23
2017-09-02T22:46:55.021Z,21.57
2017-09-02T22:49:22.542Z,18.57
2017-09-02T22:51:50.005Z,19.17
2017-09-02T22:54:17.458Z,17.80
2017-09-02T22:56:44.918Z,19.10
2017-09-02T22:59:12.377Z,18.83
2017-09-02T23:01:39.842Z,18.80
2017-09-02T23:04:07.390Z,20.60
2017-09-02T23:06:34.861Z,21.07
2017-09-02T23:09:02.325Z,21.13
2017-09-02T23:11:30.556Z,21.43
2017-09-02T23:13:58.014Z,17.67
2017-09-02T23:16:29.441Z,22.17
2017-09-02T23:18:57.242Z,21.33
2017-09-02T23:21:24.705Z,22.97
2017-09-02T23:23:53.178Z,22.57
2017-09-02T23:26:20.744Z,19.97
2017-09-02T23:28:48.189Z,21.40
2017-09-02T23:31:15.654Z,19.10
2017-09-02T23:33:43.119Z,20.40
2017-09-02T23:36:10.578Z,19.83
2017-09-02T23:38:38.037Z,21.20
2017-09-02T23:41:05.494Z,19.80
2017-09-02T23:43:32.955Z,22.30
2017-09-02T23:46:00.517Z,23.90
2017-09-02T23:48:27.970Z,22.40
2017-09-02T23:50:55.514Z,23.33
2017-09-02T23:53:23.061Z,25.27
2017-09-02T23:55:50.539Z,25.60
2017-09-02T23:58:18.671Z,23.00
